Manito, Washington
Current Conditions -  °F | °C
As of 1:53 PM on Friday 28 Nov 2014 (Local Time) from KSFF Reporting Station
Overcast Overcast  
Wind Chill: 55°   Ceiling: 7000
Heat Index: 55°   Visibility: 10mi
Dew Point: 38°   Wind: 26mph
Humidity: 53%   Direction: 220°SW
Pressure: 29.37"   Gusts: 35mph
Location:  47.5876°N, 117.326°W
Report Text: KSFF 282153Z 22023G30KT 10SM BKN070 OVC100 13/03 A2937 RMK AO2 PK WND 22037/2109 SLP943 T01280033
Loading
Personal Weather Stations






























Interactive Weather Map New forecast layout! Learn more

10-Day Weather Forecast

Advertisements
Track Severe Weather on mobile